TimePDT,TemperatureF,Dew PointF,Humidity,Sea Level PressureIn,VisibilityMPH,Wind Direction,Wind SpeedMPH,Gust SpeedMPH,PrecipitationIn,Events,Conditions,WindDirDegrees,DateUTC
12:07 AM,42.8,37.4,81,29.89,10.0,South,12.7,-,N/A,,Partly Cloudy,190,2013-10-01 07:07:00
12:10 AM,42.8,37.4,81,29.89,10.0,South,13.8,-,N/A,,Partly Cloudy,190,2013-10-01 07:10:00
12:58 AM,42.1,37.6,84,29.91,10.0,South,16.1,-,0.00,,Clear,190,2013-10-01 07:58:00
12:59 AM,42.8,37.4,81,29.90,10.0,South,16.1,-,N/A,,Clear,190,2013-10-01 07:59:00
1:36 AM,41.0,37.4,87,29.90,10.0,South,16.1,-,N/A,,Clear,180,2013-10-01 08:36:00
1:58 AM,41.4,37.6,86,29.94,10.0,South,13.8,21.9,0.00,,Clear,180,2013-10-01 08:58:00
2:01 AM,41.0,37.4,87,29.91,10.0,South,17.3,-,N/A,,Clear,180,2013-10-01 09:01:00
2:18 AM,41.0,37.4,87,29.91,10.0,South,13.8,-,N/A,,Clear,190,2013-10-01 09:18:00
2:58 AM,39.7,37.4,91,29.94,10.0,South,9.2,-,0.00,,Clear,180,2013-10-01 09:58:00
3:05 AM,39.2,37.4,93,29.91,10.0,South,11.5,-,N/A,,Clear,180,2013-10-01 10:05:00
3:15 AM,39.2,37.4,93,29.92,10.0,South,15.0,-,N/A,,Clear,170,2013-10-01 10:15:00
3:39 AM,39.2,37.4,93,29.93,10.0,South,12.7,-,N/A,,Clear,170,2013-10-01 10:39:00
3:50 AM,39.2,37.4,93,29.92,10.0,South,13.8,-,N/A,,Clear,170,2013-10-01 10:50:00
3:51 AM,39.2,37.4,93,29.92,10.0,South,15.0,-,N/A,,Clear,170,2013-10-01 10:51:00
3:58 AM,39.2,37.4,93,29.95,10.0,South,15.0,-,0.00,,Clear,170,2013-10-01 10:58:00
3:59 AM,39.2,37.4,93,29.92,10.0,South,15.0,-,N/A,,Clear,170,2013-10-01 10:59:00
4:00 AM,39.2,37.4,93,29.92,10.0,South,13.8,-,N/A,,Clear,170,2013-10-01 11:00:00
4:09 AM,39.2,37.4,93,29.92,10.0,South,12.7,-,N/A,,Clear,180,2013-10-01 11:09:00
4:17 AM,39.2,37.4,93,29.92,10.0,South,13.8,-,N/A,,Clear,180,2013-10-01 11:17:00
4:27 AM,39.2,37.4,93,29.92,10.0,South,11.5,-,N/A,,Clear,180,2013-10-01 11:27:00
4:58 AM,38.3,36.5,93,29.96,10.0,South,6.9,-,0.00,,Clear,180,2013-10-01 11:58:00
5:58 AM,37.4,36.5,97,29.96,10.0,South,9.2,-,N/A,,Mostly Cloudy,170,2013-10-01 12:58:00
6:55 AM,37.2,36.1,96,29.99,10.0,South,8.1,-,N/A,,Clear,180,2013-10-01 13:55:00
7:58 AM,38.5,37.4,96,30.00,10.0,South,5.8,-,N/A,,Partly Cloudy,170,2013-10-01 14:58:00
8:38 AM,41.0,39.2,93,29.97,10.0,South,5.8,-,N/A,,Overcast,170,2013-10-01 15:38:00
8:40 AM,41.0,39.2,93,29.97,10.0,South,5.8,-,N/A,,Overcast,170,2013-10-01 15:40:00
8:55 AM,42.8,39.2,87,29.97,10.0,South,4.6,-,N/A,,Overcast,180,2013-10-01 15:55:00
8:58 AM,42.3,39.7,91,30.00,10.0,South,5.8,-,0.00,,Overcast,180,2013-10-01 15:58:00
9:05 AM,42.8,39.2,87,29.97,10.0,SSE,5.8,-,N/A,,Overcast,160,2013-10-01 16:05:00
9:58 AM,45.1,40.5,84,30.01,10.0,South,8.1,-,0.00,,Mostly Cloudy,180,2013-10-01 16:58:00
10:11 AM,46.4,41.0,81,29.98,10.0,South,9.2,-,N/A,,Overcast,190,2013-10-01 17:11:00
10:34 AM,46.4,39.2,76,29.98,10.0,SW,8.1,-,N/A,,Overcast,220,2013-10-01 17:34:00
10:40 AM,46.4,41.0,81,29.98,10.0,SSW,6.9,-,N/A,,Overcast,210,2013-10-01 17:40:00
10:51 AM,46.4,41.0,81,29.98,10.0,South,6.9,-,N/A,,Overcast,190,2013-10-01 17:51:00
10:58 AM,47.1,40.1,77,30.01,10.0,SSW,10.4,-,N/A,,Overcast,210,2013-10-01 17:58:00
11:06 AM,48.2,39.2,71,29.98,10.0,SSW,9.2,-,N/A,,Overcast,210,2013-10-01 18:06:00
11:09 AM,48.2,39.2,71,29.97,10.0,SSW,9.2,-,N/A,,Overcast,210,2013-10-01 18:09:00
11:58 AM,48.9,39.6,70,30.00,10.0,SSW,9.2,-,N/A,,Overcast,210,2013-10-01 18:58:00
12:49 PM,51.8,39.2,62,29.97,10.0,SSW,16.1,21.9,N/A,Rain,Light Rain,210,2013-10-01 19:49:00
12:58 PM,52.3,39.7,62,29.99,10.0,South,17.3,-,0.00,Rain,Light Rain,190,2013-10-01 19:58:00
12:59 PM,53.6,39.2,58,29.97,10.0,South,17.3,-,N/A,,Scattered Clouds,190,2013-10-01 19:59:00
1:51 PM,53.6,39.2,58,29.96,10.0,South,12.7,-,N/A,Rain,Light Rain,190,2013-10-01 20:51:00
1:53 PM,51.8,39.2,62,29.96,10.0,South,12.7,-,N/A,,Partly Cloudy,180,2013-10-01 20:53:00
1:58 PM,52.3,39.4,61,29.99,10.0,South,13.8,20.7,0.00,,Partly Cloudy,190,2013-10-01 20:58:00
2:58 PM,51.8,37.2,58,30.00,10.0,SW,16.1,-,N/A,,Mostly Cloudy,220,2013-10-01 21:58:00
3:58 PM,51.1,37.8,60,30.00,10.0,SW,16.1,-,N/A,,Scattered Clouds,230,2013-10-01 22:58:00
4:58 PM,50.7,39.4,65,30.03,10.0,SSW,15.0,-,N/A,,Scattered Clouds,210,2013-10-01 23:58:00
5:58 PM,50.0,38.5,65,30.04,10.0,SSW,11.5,-,N/A,,Clear,210,2013-10-02 00:58:00
6:58 PM,47.3,37.8,69,30.02,10.0,SSW,11.5,-,N/A,,Mostly Cloudy,200,2013-10-02 01:58:00
7:58 PM,45.0,36.9,73,30.09,10.0,South,10.4,-,N/A,,Mostly Cloudy,180,2013-10-02 02:58:00
8:38 PM,42.8,39.2,87,30.05,10.0,South,12.7,-,N/A,,Scattered Clouds,180,2013-10-02 03:38:00
8:58 PM,43.2,39.0,85,30.10,10.0,South,15.0,-,0.00,,Clear,190,2013-10-02 03:58:00
9:07 PM,42.8,39.2,87,30.06,10.0,South,16.1,-,N/A,,Clear,190,2013-10-02 04:07:00
9:10 PM,42.8,39.2,87,30.06,10.0,South,13.8,-,N/A,,Clear,190,2013-10-02 04:10:00
9:14 PM,42.8,39.2,87,30.07,10.0,South,16.1,-,N/A,,Clear,190,2013-10-02 04:14:00
9:54 PM,41.0,39.2,93,30.08,10.0,South,12.7,-,N/A,,Clear,180,2013-10-02 04:54:00
9:58 PM,41.2,39.0,92,30.12,10.0,South,15.0,-,0.00,,Clear,180,2013-10-02 04:58:00
10:03 PM,41.0,39.2,93,30.08,10.0,South,13.8,-,N/A,,Clear,190,2013-10-02 05:03:00
10:21 PM,41.0,39.2,93,30.08,10.0,South,11.5,-,N/A,,Clear,180,2013-10-02 05:21:00
10:26 PM,41.0,39.2,93,30.08,10.0,South,12.7,18.4,N/A,,Partly Cloudy,180,2013-10-02 05:26:00
10:43 PM,41.0,39.2,93,30.09,10.0,South,15.0,-,N/A,,Partly Cloudy,180,2013-10-02 05:43:00
10:58 PM,41.0,39.6,95,30.14,10.0,South,16.1,-,0.00,,Partly Cloudy,190,2013-10-02 05:58:00
11:43 PM,39.2,39.2,100,30.10,10.0,South,13.8,-,N/A,,Clear,190,2013-10-02 06:43:00
11:58 PM,39.7,38.5,95,30.15,10.0,South,13.8,-,0.00,,Clear,180,2013-10-02 06:58:00